Time;durP1;ratioP1;P1;durP2;ratioP2;P2;SDS_P1;SDS_P2;PMS_P1;PMS_P2;Temp;Humidity;BMP_temperature;BMP_pressure;BME280_temperature;BME280_humidity;BME280_pressure;Samples;Min_cycle;Max_cycle;Signal;HPM_P1;HPM_P2
2021/06/03 00:01:13;;;;;;;6.38;3.67;;;;;;;;;;5031365;27;39271;-78
2021/06/03 00:03:39;;;;;;;6.72;3.50;;;;;;;;;;5064002;28;37921;-79
2021/06/03 00:06:06;;;;;;;5.15;3.40;;;;;;;;;;5059436;28;38490;-79
2021/06/03 00:08:33;;;;;;;5.45;3.55;;;;;;;;;;5033938;28;38844;-79
2021/06/03 00:11:07;;;;;;;8.07;3.67;;;;;;;;;;5032317;28;39679;-80
2021/06/03 00:13:34;;;;;;;5.07;3.40;;;;;;;;;;5052560;28;46956;-80
2021/06/03 00:16:02;;;;;;;4.45;3.22;;;;;;;;;;5051120;28;37101;-80
2021/06/03 00:18:28;;;;;;;4.60;3.33;;;;;;;;;;5045995;28;47301;-79
2021/06/03 00:20:55;;;;;;;3.45;2.75;;;;;;;;;;5066002;27;39337;-79
2021/06/03 00:23:22;;;;;;;4.30;3.25;;;;;;;;;;5061081;27;38486;-79
2021/06/03 00:25:50;;;;;;;6.68;3.88;;;;;;;;;;5052548;27;34508;-79
2021/06/03 00:28:16;;;;;;;3.55;3.00;;;;;;;;;;5062522;27;39088;-79
2021/06/03 00:30:43;;;;;;;4.03;3.22;;;;;;;;;;5055586;28;38660;-79
2021/06/03 00:33:10;;;;;;;5.32;3.92;;;;;;;;;;5052360;28;38745;-81
2021/06/03 00:35:36;;;;;;;4.65;4.25;;;;;;;;;;5052623;28;35942;-78
2021/06/03 00:38:03;;;;;;;6.10;4.38;;;;;;;;;;5063756;27;40272;-80
2021/06/03 00:40:30;;;;;;;5.80;4.57;;;;;;;;;;5051878;28;39669;-79
2021/06/03 00:42:56;;;;;;;6.65;4.13;;;;;;;;;;5051983;28;39702;-80
2021/06/03 00:45:30;;;;;;;6.68;4.30;;;;;;;;;;5053888;27;37984;-79
2021/06/03 00:47:57;;;;;;;5.35;4.25;;;;;;;;;;5055701;28;41010;-80
2021/06/03 00:50:31;;;;;;;4.70;4.03;;;;;;;;;;5073211;27;39231;-79
2021/06/03 00:53:00;;;;;;;5.70;4.22;;;;;;;;;;5065403;28;36841;-81
2021/06/03 00:55:27;;;;;;;4.85;3.72;;;;;;;;;;5031105;27;37975;-79
2021/06/03 00:57:53;;;;;;;6.47;4.57;;;;;;;;;;5032190;28;39774;-79
2021/06/03 01:00:20;;;;;;;7.75;4.57;;;;;;;;;;5049902;27;37738;-80
2021/06/03 01:02:46;;;;;;;4.85;4.28;;;;;;;;;;5054064;27;39010;-80
2021/06/03 01:05:14;;;;;;;8.23;4.40;;;;;;;;;;5050624;27;37233;-80
2021/06/03 01:07:40;;;;;;;6.03;4.60;;;;;;;;;;5050522;28;39486;-80
2021/06/03 01:10:07;;;;;;;5.68;4.15;;;;;;;;;;5053673;27;37458;-80
2021/06/03 01:12:38;;;;;;;7.55;4.47;;;;;;;;;;5049184;28;38525;-79
2021/06/03 01:15:06;;;;;;;8.55;4.88;;;;;;;;;;5064992;27;39166;-78
2021/06/03 01:17:33;;;;;;;5.80;4.50;;;;;;;;;;5052747;27;38181;-79
2021/06/03 01:20:00;;;;;;;5.18;3.72;;;;;;;;;;5050204;28;40260;-79
2021/06/03 01:22:46;;;;;;;9.20;4.80;;;;;;;;;;5048101;28;39024;-78
2021/06/03 01:25:13;;;;;;;5.28;4.88;;;;;;;;;;5021056;28;35549;-79
2021/06/03 01:27:39;;;;;;;7.30;5.22;;;;;;;;;;5061206;28;39350;-79
2021/06/03 01:30:17;;;;;;;9.32;5.50;;;;;;;;;;5020093;28;38285;-79
2021/06/03 01:32:48;;;;;;;5.88;5.18;;;;;;;;;;5028587;28;46873;-79
2021/06/03 01:35:19;;;;;;;9.15;4.93;;;;;;;;;;5046043;28;36896;-80
2021/06/03 01:37:47;;;;;;;5.28;4.78;;;;;;;;;;5061406;28;39881;-79
2021/06/03 01:40:14;;;;;;;5.35;4.85;;;;;;;;;;5061771;27;39227;-80
2021/06/03 01:42:40;;;;;;;8.05;5.50;;;;;;;;;;5062138;28;39380;-80
2021/06/03 01:45:08;;;;;;;6.68;5.13;;;;;;;;;;5057596;28;37625;-79
2021/06/03 01:47:35;;;;;;;10.13;5.47;;;;;;;;;;5028928;28;39573;-79
2021/06/03 01:50:02;;;;;;;19.38;5.40;;;;;;;;;;5035816;28;39385;-79
2021/06/03 01:52:28;;;;;;;6.43;5.45;;;;;;;;;;5046449;28;47146;-78
2021/06/03 01:54:55;;;;;;;7.72;5.40;;;;;;;;;;5055479;28;37687;-80
2021/06/03 01:57:21;;;;;;;7.97;4.95;;;;;;;;;;5050640;27;38899;-82
2021/06/03 01:59:48;;;;;;;7.68;5.38;;;;;;;;;;5047184;28;38422;-80
2021/06/03 02:02:15;;;;;;;5.32;4.82;;;;;;;;;;5050707;27;40990;-80
2021/06/03 02:04:41;;;;;;;15.50;6.53;;;;;;;;;;5043611;27;36629;-81
2021/06/03 02:07:08;;;;;;;11.30;6.53;;;;;;;;;;5044420;28;37824;-79
2021/06/03 02:09:34;;;;;;;9.82;6.55;;;;;;;;;;5043218;28;38912;-79
2021/06/03 02:12:00;;;;;;;8.98;6.70;;;;;;;;;;5039900;28;38935;-79
2021/06/03 02:14:29;;;;;;;7.90;6.75;;;;;;;;;;5028158;28;46817;-79
2021/06/03 02:16:59;;;;;;;9.73;6.80;;;;;;;;;;5032216;28;39543;-80
2021/06/03 02:19:34;;;;;;;8.27;6.82;;;;;;;;;;5029762;28;37709;-78
2021/06/03 02:22:01;;;;;;;9.20;7.75;;;;;;;;;;5034024;28;38596;-79
2021/06/03 02:24:27;;;;;;;9.55;7.30;;;;;;;;;;5032279;28;47123;-79
2021/06/03 02:26:55;;;;;;;9.73;7.47;;;;;;;;;;5035752;28;39061;-78
2021/06/03 02:29:21;;;;;;;10.50;7.45;;;;;;;;;;5030731;28;39913;-79
2021/06/03 02:31:48;;;;;;;8.27;7.35;;;;;;;;;;5060242;28;37221;-80
2021/06/03 02:34:14;;;;;;;8.32;7.25;;;;;;;;;;5031758;28;37519;-78
2021/06/03 02:36:41;;;;;;;7.75;7.05;;;;;;;;;;5059251;28;41329;-79
2021/06/03 02:39:08;;;;;;;9.50;7.40;;;;;;;;;;5027399;28;38292;-78
2021/06/03 02:41:35;;;;;;;8.35;6.88;;;;;;;;;;5032681;28;37824;-78
2021/06/03 02:44:01;;;;;;;9.20;7.40;;;;;;;;;;5032260;28;37018;-79
2021/06/03 02:46:28;;;;;;;8.82;7.63;;;;;;;;;;5029573;28;46982;-78
2021/06/03 02:48:54;;;;;;;9.57;7.50;;;;;;;;;;5034338;28;38397;-78
2021/06/03 02:51:21;;;;;;;8.30;7.35;;;;;;;;;;5054198;28;37571;-78
2021/06/03 02:53:47;;;;;;;9.27;8.18;;;;;;;;;;5028001;28;38674;-79
2021/06/03 02:56:14;;;;;;;9.98;8.45;;;;;;;;;;5031328;28;38595;-78
2021/06/03 02:58:41;;;;;;;9.80;7.97;;;;;;;;;;5029570;28;38731;-78
2021/06/03 03:01:07;;;;;;;11.55;8.13;;;;;;;;;;5029514;28;38264;-78
2021/06/03 03:03:34;;;;;;;10.60;8.02;;;;;;;;;;5030027;28;37516;-78
2021/06/03 03:06:00;;;;;;;9.63;7.93;;;;;;;;;;5030148;28;38330;-78
2021/06/03 03:08:27;;;;;;;10.57;9.18;;;;;;;;;;5050318;28;47649;-79
2021/06/03 03:10:55;;;;;;;13.57;9.73;;;;;;;;;;5049648;28;38849;-79
2021/06/03 03:13:22;;;;;;;12.68;9.45;;;;;;;;;;5029236;28;37065;-79
2021/06/03 03:15:48;;;;;;;16.10;11.43;;;;;;;;;;5026016;28;41202;-79
2021/06/03 03:18:15;;;;;;;11.75;10.55;;;;;;;;;;5027238;28;38485;-79
2021/06/03 03:20:41;;;;;;;11.70;10.50;;;;;;;;;;5032269;28;38792;-78
2021/06/03 03:23:09;;;;;;;12.70;10.80;;;;;;;;;;5033352;28;37406;-80
2021/06/03 03:25:38;;;;;;;12.50;11.20;;;;;;;;;;5029718;28;40281;-80
2021/06/03 03:28:06;;;;;;;15.07;11.10;;;;;;;;;;5028230;28;38558;-79
2021/06/03 03:30:33;;;;;;;11.32;10.23;;;;;;;;;;5029665;28;39755;-80
2021/06/03 03:33:00;;;;;;;13.27;11.00;;;;;;;;;;5031487;28;37577;-79
2021/06/03 03:35:26;;;;;;;12.25;10.88;;;;;;;;;;5049072;27;39247;-79
2021/06/03 03:37:53;;;;;;;10.60;9.18;;;;;;;;;;5034724;28;38953;-79
2021/06/03 03:40:20;;;;;;;11.43;10.10;;;;;;;;;;5033077;28;38550;-79
2021/06/03 03:42:47;;;;;;;10.68;9.68;;;;;;;;;;5034557;28;36849;-79
2021/06/03 03:45:15;;;;;;;10.55;8.88;;;;;;;;;;5033044;27;36497;-81
2021/06/03 03:47:42;;;;;;;10.15;8.45;;;;;;;;;;5030533;28;38287;-79
2021/06/03 03:50:10;;;;;;;11.38;9.13;;;;;;;;;;5034716;28;39233;-80
2021/06/03 03:52:37;;;;;;;9.63;8.73;;;;;;;;;;5032304;28;37281;-80
2021/06/03 03:55:04;;;;;;;9.73;8.82;;;;;;;;;;5061730;27;39721;-81
2021/06/03 03:57:31;;;;;;;11.30;8.75;;;;;;;;;;5029550;28;48927;-81
2021/06/03 03:59:57;;;;;;;10.18;8.18;;;;;;;;;;5033741;28;38764;-80
2021/06/03 04:02:24;;;;;;;9.95;8.52;;;;;;;;;;5062918;28;38219;-79
2021/06/03 04:04:50;;;;;;;15.15;8.30;;;;;;;;;;5059775;28;39249;-79
2021/06/03 04:07:16;;;;;;;13.23;9.07;;;;;;;;;;5028745;28;38778;-79
2021/06/03 04:09:43;;;;;;;8.68;7.82;;;;;;;;;;5065322;28;38815;-79
2021/06/03 04:12:10;;;;;;;10.18;8.50;;;;;;;;;;5063878;28;35653;-80
2021/06/03 04:14:36;;;;;;;10.00;8.00;;;;;;;;;;5031654;28;39920;-79
2021/06/03 04:17:02;;;;;;;10.32;8.02;;;;;;;;;;5059564;28;38088;-78
2021/06/03 04:19:29;;;;;;;10.90;8.23;;;;;;;;;;5063211;28;38867;-80
2021/06/03 04:21:58;;;;;;;11.77;8.15;;;;;;;;;;5029441;28;37807;-79
2021/06/03 04:24:25;;;;;;;13.98;9.32;;;;;;;;;;5031599;28;39707;-79
2021/06/03 04:26:51;;;;;;;17.08;8.85;;;;;;;;;;5062128;27;40278;-81
2021/06/03 04:29:18;;;;;;;9.73;8.18;;;;;;;;;;5062710;28;38326;-79
2021/06/03 04:31:44;;;;;;;10.35;8.75;;;;;;;;;;5061638;28;37921;-80
2021/06/03 04:34:11;;;;;;;9.55;8.65;;;;;;;;;;5033389;28;38827;-79
2021/06/03 04:36:37;;;;;;;11.88;9.23;;;;;;;;;;5029296;28;39444;-79
2021/06/03 04:39:04;;;;;;;10.07;9.02;;;;;;;;;;5036119;28;38213;-79
2021/06/03 04:41:31;;;;;;;9.95;8.25;;;;;;;;;;5049776;28;48581;-81
2021/06/03 04:43:57;;;;;;;12.07;10.10;;;;;;;;;;5050431;28;39405;-78
2021/06/03 04:46:23;;;;;;;10.15;8.93;;;;;;;;;;5045004;27;38635;-79
2021/06/03 04:48:50;;;;;;;13.30;10.25;;;;;;;;;;5053047;28;39685;-79
2021/06/03 04:51:16;;;;;;;15.52;10.85;;;;;;;;;;5050004;28;35715;-78
2021/06/03 04:53:42;;;;;;;11.40;9.57;;;;;;;;;;5045833;27;38727;-79
2021/06/03 04:56:09;;;;;;;11.50;10.30;;;;;;;;;;5051782;27;38799;-79
2021/06/03 04:58:36;;;;;;;10.65;9.63;;;;;;;;;;5032678;28;38261;-79
2021/06/03 05:01:02;;;;;;;13.18;10.52;;;;;;;;;;5028723;28;36659;-79
2021/06/03 05:03:29;;;;;;;11.00;9.90;;;;;;;;;;5048878;28;38137;-79
2021/06/03 05:05:55;;;;;;;11.23;9.27;;;;;;;;;;5040165;28;38700;-78
2021/06/03 05:08:22;;;;;;;11.90;9.77;;;;;;;;;;5024498;28;39388;-78
2021/06/03 05:10:48;;;;;;;10.68;9.57;;;;;;;;;;5033807;28;38230;-78
2021/06/03 05:13:14;;;;;;;11.35;9.68;;;;;;;;;;5034367;28;40371;-78
2021/06/03 05:15:41;;;;;;;12.32;9.90;;;;;;;;;;5051779;27;39652;-79
2021/06/03 05:18:08;;;;;;;12.18;9.40;;;;;;;;;;5055737;28;37984;-80
2021/06/03 05:20:34;;;;;;;12.30;9.05;;;;;;;;;;5057084;28;37182;-78
2021/06/03 05:23:01;;;;;;;10.27;9.15;;;;;;;;;;5051753;28;39582;-80
2021/06/03 05:25:29;;;;;;;11.10;8.75;;;;;;;;;;5023057;28;47457;-79
2021/06/03 05:27:56;;;;;;;11.00;9.80;;;;;;;;;;5035876;28;38987;-79
2021/06/03 05:30:23;;;;;;;10.23;9.15;;;;;;;;;;5033739;27;38954;-79
2021/06/03 05:32:49;;;;;;;11.13;9.50;;;;;;;;;;5046540;28;39300;-79
2021/06/03 05:35:17;;;;;;;10.05;9.15;;;;;;;;;;5033224;27;37425;-80
2021/06/03 05:37:44;;;;;;;10.75;9.55;;;;;;;;;;5041112;28;39059;-79
2021/06/03 05:40:11;;;;;;;11.18;10.07;;;;;;;;;;5044954;27;38254;-79
2021/06/03 05:42:37;;;;;;;10.85;9.50;;;;;;;;;;5039912;28;39851;-79
2021/06/03 05:45:05;;;;;;;10.93;9.88;;;;;;;;;;5041773;28;36404;-79
2021/06/03 05:47:31;;;;;;;12.73;10.73;;;;;;;;;;5034313;28;48419;-78
2021/06/03 05:49:58;;;;;;;12.38;10.65;;;;;;;;;;5031556;28;36988;-80
2021/06/03 05:52:24;;;;;;;11.50;10.32;;;;;;;;;;5068892;27;40016;-78
2021/06/03 05:54:51;;;;;;;13.77;10.23;;;;;;;;;;5064980;28;40002;-78
2021/06/03 05:57:17;;;;;;;13.70;10.27;;;;;;;;;;5052456;27;39547;-79
2021/06/03 05:59:44;;;;;;;11.65;10.45;;;;;;;;;;5059180;27;37587;-79
2021/06/03 06:02:17;;;;;;;13.45;9.77;;;;;;;;;;5056360;28;39868;-79
2021/06/03 06:07:29;;;;;;;14.27;9.30;;;;;;;;;;5052950;28;49850;-79
2021/06/03 06:09:55;;;;;;;11.20;10.02;;;;;;;;;;5057777;27;37860;-78
2021/06/03 06:12:21;;;;;;;12.55;9.65;;;;;;;;;;5055222;28;39492;-79
2021/06/03 06:14:48;;;;;;;11.70;9.30;;;;;;;;;;5043440;28;39581;-81
2021/06/03 06:17:14;;;;;;;11.77;10.02;;;;;;;;;;5033299;28;38633;-79
2021/06/03 06:19:41;;;;;;;12.85;9.98;;;;;;;;;;5057871;28;37043;-80
2021/06/03 06:22:07;;;;;;;16.52;10.02;;;;;;;;;;5038503;28;38646;-80
2021/06/03 06:24:34;;;;;;;10.15;9.15;;;;;;;;;;5048927;28;39688;-82
2021/06/03 06:27:01;;;;;;;10.35;8.80;;;;;;;;;;5055781;28;37105;-79
2021/06/03 06:29:28;;;;;;;13.93;8.82;;;;;;;;;;5057428;27;49869;-80
2021/06/03 06:31:54;;;;;;;11.82;8.90;;;;;;;;;;5059789;28;40179;-79
2021/06/03 06:34:21;;;;;;;10.63;8.68;;;;;;;;;;5073094;28;39432;-80
2021/06/03 06:36:47;;;;;;;10.10;8.85;;;;;;;;;;5046546;28;39913;-80
2021/06/03 06:39:17;;;;;;;10.43;8.52;;;;;;;;;;5060843;27;37736;-80
2021/06/03 06:41:44;;;;;;;11.05;8.32;;;;;;;;;;5057065;27;39206;-78
2021/06/03 06:44:10;;;;;;;9.55;8.50;;;;;;;;;;5053095;28;39661;-79
2021/06/03 06:46:37;;;;;;;8.80;7.90;;;;;;;;;;5056866;28;39277;-80
2021/06/03 06:49:03;;;;;;;9.15;8.27;;;;;;;;;;5061627;27;37786;-80
2021/06/03 06:51:30;;;;;;;8.98;7.95;;;;;;;;;;5056400;27;40049;-79
2021/06/03 06:53:56;;;;;;;8.45;7.53;;;;;;;;;;5058091;27;38357;-78
2021/06/03 06:56:23;;;;;;;9.35;7.45;;;;;;;;;;5059707;27;38498;-79
2021/06/03 06:58:49;;;;;;;9.95;7.43;;;;;;;;;;5060520;28;36964;-80
2021/06/03 07:01:15;;;;;;;11.63;7.90;;;;;;;;;;5057721;27;38803;-79
2021/06/03 07:03:42;;;;;;;8.25;6.97;;;;;;;;;;5063820;27;39585;-79
2021/06/03 07:06:08;;;;;;;8.48;7.28;;;;;;;;;;5061532;28;39964;-79
2021/06/03 07:08:34;;;;;;;9.57;7.75;;;;;;;;;;5064763;27;35504;-80
2021/06/03 07:11:01;;;;;;;9.18;8.15;;;;;;;;;;5065861;28;39536;-79
2021/06/03 07:13:27;;;;;;;10.68;7.70;;;;;;;;;;5068704;27;48317;-80
2021/06/03 07:15:54;;;;;;;11.35;8.68;;;;;;;;;;5063953;28;38845;-80
2021/06/03 07:18:21;;;;;;;8.93;7.30;;;;;;;;;;5050315;27;37061;-79
2021/06/03 07:20:48;;;;;;;12.30;8.20;;;;;;;;;;5049279;27;39158;-81
2021/06/03 07:23:14;;;;;;;12.98;8.57;;;;;;;;;;5040847;27;39666;-80
2021/06/03 07:25:41;;;;;;;8.93;8.13;;;;;;;;;;5049293;27;39086;-80
2021/06/03 07:28:08;;;;;;;11.30;9.40;;;;;;;;;;5062217;28;36834;-80
2021/06/03 07:30:35;;;;;;;9.90;8.77;;;;;;;;;;5064658;27;39273;-80
2021/06/03 07:33:01;;;;;;;12.02;8.63;;;;;;;;;;5070043;28;38992;-81
2021/06/03 07:35:28;;;;;;;13.10;9.65;;;;;;;;;;5060776;28;48508;-80
2021/06/03 07:37:55;;;;;;;11.55;9.45;;;;;;;;;;5058084;28;37787;-79
2021/06/03 07:40:22;;;;;;;12.50;10.27;;;;;;;;;;5057279;27;39312;-79
2021/06/03 07:42:49;;;;;;;10.30;9.13;;;;;;;;;;5048749;28;38715;-79
2021/06/03 07:45:17;;;;;;;13.02;10.02;;;;;;;;;;5058741;27;38998;-81
2021/06/03 07:47:44;;;;;;;14.15;10.63;;;;;;;;;;5064154;28;36895;-80
2021/06/03 07:50:11;;;;;;;12.63;10.55;;;;;;;;;;5068137;27;41170;-79
2021/06/03 07:52:38;;;;;;;11.43;10.00;;;;;;;;;;5064687;28;38479;-79
2021/06/03 07:55:05;;;;;;;11.95;10.75;;;;;;;;;;5061722;28;38674;-80
2021/06/03 07:57:32;;;;;;;11.05;9.88;;;;;;;;;;5058004;28;48901;-80
2021/06/03 07:59:58;;;;;;;16.98;11.35;;;;;;;;;;5062490;28;39010;-78
2021/06/03 08:02:24;;;;;;;13.27;10.63;;;;;;;;;;5060617;27;39567;-80
2021/06/03 08:04:51;;;;;;;12.85;11.00;;;;;;;;;;5055837;28;40198;-78
2021/06/03 08:07:17;;;;;;;13.80;10.93;;;;;;;;;;5056023;28;37568;-79
2021/06/03 08:09:45;;;;;;;12.00;10.80;;;;;;;;;;5070347;28;39701;-78
2021/06/03 08:12:12;;;;;;;11.60;10.27;;;;;;;;;;5059320;27;39984;-78
2021/06/03 08:14:39;;;;;;;17.70;11.85;;;;;;;;;;5054218;28;39217;-78
2021/06/03 08:17:05;;;;;;;11.32;9.98;;;;;;;;;;5056354;28;37995;-80
2021/06/03 08:19:31;;;;;;;12.95;11.52;;;;;;;;;;5055478;27;38758;-78
2021/06/03 08:21:58;;;;;;;12.55;10.77;;;;;;;;;;5056801;28;39351;-80
2021/06/03 08:24:24;;;;;;;15.27;10.68;;;;;;;;;;5057309;28;38104;-78
2021/06/03 08:26:52;;;;;;;10.88;9.77;;;;;;;;;;5056820;28;37604;-79
2021/06/03 08:29:19;;;;;;;17.92;12.23;;;;;;;;;;5055113;27;39280;-79
2021/06/03 08:31:48;;;;;;;14.52;9.63;;;;;;;;;;5057526;28;38621;-78
2021/06/03 08:34:14;;;;;;;14.25;11.23;;;;;;;;;;5067721;28;38074;-79
2021/06/03 08:36:41;;;;;;;13.43;12.05;;;;;;;;;;5054350;28;36929;-78
2021/06/03 08:39:07;;;;;;;13.25;10.60;;;;;;;;;;5063614;28;39280;-79
2021/06/03 08:41:38;;;;;;;14.48;11.65;;;;;;;;;;5060525;28;39387;-79
2021/06/03 08:44:06;;;;;;;12.43;10.38;;;;;;;;;;5061294;27;41245;-78
2021/06/03 08:46:32;;;;;;;13.95;11.20;;;;;;;;;;5055259;28;39440;-77
2021/06/03 08:49:00;;;;;;;11.48;10.35;;;;;;;;;;5056990;28;38232;-79
2021/06/03 08:51:27;;;;;;;12.82;11.60;;;;;;;;;;5063568;28;39907;-78
2021/06/03 08:53:53;;;;;;;11.35;10.23;;;;;;;;;;5057086;28;38502;-80
2021/06/03 08:56:20;;;;;;;13.25;11.90;;;;;;;;;;5047964;28;37343;-77
2021/06/03 08:58:54;;;;;;;12.20;10.90;;;;;;;;;;5055878;28;39320;-79
2021/06/03 09:01:21;;;;;;;13.18;11.70;;;;;;;;;;5082263;27;38528;-78
2021/06/03 09:03:48;;;;;;;12.20;10.65;;;;;;;;;;5058048;28;37386;-78
2021/06/03 09:06:16;;;;;;;12.40;11.10;;;;;;;;;;5055728;28;37350;-79
2021/06/03 09:08:52;;;;;;;12.23;10.57;;;;;;;;;;5059949;28;39700;-78
2021/06/03 09:11:20;;;;;;;14.52;10.43;;;;;;;;;;5050146;28;38754;-77
2021/06/03 09:13:50;;;;;;;13.95;11.52;;;;;;;;;;5048284;28;38683;-78
2021/06/03 09:16:18;;;;;;;18.38;10.88;;;;;;;;;;5059085;28;36964;-77
2021/06/03 09:18:58;;;;;;;12.48;10.57;;;;;;;;;;5050294;28;40944;-78
2021/06/03 09:21:29;;;;;;;13.77;11.85;;;;;;;;;;5044874;27;38404;-78
2021/06/03 09:24:10;;;;;;;15.55;11.05;;;;;;;;;;5060832;27;38416;-78
2021/06/03 09:26:38;;;;;;;11.45;10.25;;;;;;;;;;5054931;27;49170;-78
2021/06/03 09:29:05;;;;;;;14.27;10.77;;;;;;;;;;5061737;28;37499;-79
2021/06/03 09:31:33;;;;;;;14.40;11.40;;;;;;;;;;5058606;28;38435;-81
2021/06/03 09:34:07;;;;;;;11.43;10.20;;;;;;;;;;5055499;28;39022;-79
2021/06/03 09:36:36;;;;;;;15.23;11.27;;;;;;;;;;5046881;27;48503;-79
2021/06/03 09:39:14;;;;;;;13.70;10.68;;;;;;;;;;5059066;27;38627;-79
2021/06/03 09:41:50;;;;;;;14.93;10.18;;;;;;;;;;5061731;28;39155;-79
2021/06/03 09:44:19;;;;;;;14.32;11.90;;;;;;;;;;5059474;28;37253;-78
2021/06/03 09:46:47;;;;;;;13.10;10.45;;;;;;;;;;5050831;28;36006;-78
2021/06/03 09:49:28;;;;;;;13.32;9.95;;;;;;;;;;5062259;27;40024;-81
2021/06/03 09:51:56;;;;;;;11.57;10.43;;;;;;;;;;5069413;27;37350;-78
2021/06/03 09:54:22;;;;;;;11.57;10.38;;;;;;;;;;5058928;28;37119;-81
2021/06/03 09:56:51;;;;;;;11.48;9.30;;;;;;;;;;5057770;28;37477;-79
2021/06/03 09:59:21;;;;;;;13.75;12.40;;;;;;;;;;5047160;28;37754;-79
2021/06/03 10:02:05;;;;;;;13.67;11.77;;;;;;;;;;5050811;27;39380;-78
2021/06/03 10:04:37;;;;;;;18.83;13.35;;;;;;;;;;5058917;28;47360;-78
2021/06/03 10:07:08;;;;;;;16.13;13.45;;;;;;;;;;5058709;28;37835;-78
2021/06/03 10:09:34;;;;;;;17.27;13.43;;;;;;;;;;5050401;28;39692;-79
2021/06/03 10:12:01;;;;;;;14.38;11.65;;;;;;;;;;5057184;28;38767;-79
2021/06/03 10:14:27;;;;;;;15.30;11.32;;;;;;;;;;5076451;27;47062;-79
2021/06/03 10:16:54;;;;;;;13.85;11.77;;;;;;;;;;5081526;28;37827;-80
2021/06/03 10:19:21;;;;;;;12.00;10.75;;;;;;;;;;5054215;27;39305;-79
2021/06/03 10:22:06;;;;;;;14.50;11.80;;;;;;;;;;5051407;28;40198;-79
2021/06/03 10:24:49;;;;;;;17.73;13.10;;;;;;;;;;5058655;28;47697;-78
2021/06/03 10:27:16;;;;;;;16.92;12.65;;;;;;;;;;5049411;28;37622;-79
2021/06/03 10:29:43;;;;;;;12.75;11.05;;;;;;;;;;5060237;28;39296;-78
2021/06/03 10:32:10;;;;;;;14.20;12.60;;;;;;;;;;5058663;28;38600;-81
2021/06/03 10:34:37;;;;;;;11.98;10.50;;;;;;;;;;5061916;28;37233;-78
2021/06/03 10:37:04;;;;;;;13.93;10.95;;;;;;;;;;5055267;27;37486;-78
2021/06/03 10:39:32;;;;;;;13.43;10.82;;;;;;;;;;5056144;27;39072;-79
2021/06/03 10:42:00;;;;;;;14.18;12.32;;;;;;;;;;5050199;28;40579;-77
2021/06/03 10:44:28;;;;;;;14.48;12.85;;;;;;;;;;5053645;27;38746;-79
2021/06/03 10:46:56;;;;;;;12.40;10.68;;;;;;;;;;5060231;27;37329;-79
2021/06/03 10:49:24;;;;;;;17.33;13.50;;;;;;;;;;5084105;28;40272;-78
2021/06/03 10:51:51;;;;;;;11.98;8.95;;;;;;;;;;5049296;28;39775;-78
2021/06/03 10:54:36;;;;;;;13.65;11.57;;;;;;;;;;5049943;28;39749;-78
2021/06/03 10:57:03;;;;;;;16.65;12.90;;;;;;;;;;5057489;27;36800;-80
2021/06/03 10:59:30;;;;;;;18.40;15.23;;;;;;;;;;5027052;28;47541;-78
2021/06/03 11:01:59;;;;;;;18.00;16.10;;;;;;;;;;5034060;28;38663;-78
2021/06/03 11:04:29;;;;;;;18.58;15.38;;;;;;;;;;5037834;27;38591;-78
2021/06/03 11:06:55;;;;;;;17.20;15.13;;;;;;;;;;5040327;28;37146;-78
2021/06/03 11:09:26;;;;;;;19.85;14.13;;;;;;;;;;5050898;28;39801;-78
2021/06/03 11:12:05;;;;;;;13.40;11.10;;;;;;;;;;5077208;28;39117;-78
2021/06/03 11:14:32;;;;;;;12.60;10.93;;;;;;;;;;5055137;27;49050;-77
2021/06/03 11:17:00;;;;;;;16.00;12.80;;;;;;;;;;5062857;28;38623;-78
2021/06/03 11:19:30;;;;;;;19.95;14.65;;;;;;;;;;5049114;27;38853;-79
2021/06/03 11:22:08;;;;;;;17.92;14.38;;;;;;;;;;5055777;28;38852;-78
2021/06/03 11:24:35;;;;;;;16.00;14.40;;;;;;;;;;5043217;28;47353;-79
2021/06/03 11:27:03;;;;;;;19.48;14.27;;;;;;;;;;5061257;28;36381;-78
2021/06/03 11:29:30;;;;;;;17.25;13.77;;;;;;;;;;5062898;28;47119;-77
2021/06/03 11:32:03;;;;;;;18.38;16.48;;;;;;;;;;5058137;28;40449;-79
2021/06/03 11:34:39;;;;;;;17.90;14.20;;;;;;;;;;5061555;28;47196;-78
2021/06/03 11:37:11;;;;;;;18.80;15.25;;;;;;;;;;5063183;27;37445;-78
2021/06/03 11:39:51;;;;;;;12.82;11.43;;;;;;;;;;5056261;27;38680;-79
2021/06/03 11:42:25;;;;;;;16.15;12.82;;;;;;;;;;5061203;27;39513;-79
2021/06/03 11:45:01;;;;;;;12.35;10.75;;;;;;;;;;5061103;28;38365;-79
2021/06/03 11:47:27;;;;;;;14.77;13.23;;;;;;;;;;5061024;27;47350;-78
2021/06/03 11:49:54;;;;;;;22.10;15.40;;;;;;;;;;5063354;28;39900;-79
2021/06/03 11:52:20;;;;;;;20.10;16.15;;;;;;;;;;5055045;27;39523;-77
2021/06/03 11:54:54;;;;;;;21.65;17.45;;;;;;;;;;5052003;28;38721;-79
2021/06/03 11:57:24;;;;;;;20.67;15.60;;;;;;;;;;5054574;28;37470;-78
2021/06/03 11:59:57;;;;;;;21.83;16.83;;;;;;;;;;5061552;28;39142;-78
2021/06/03 12:02:29;;;;;;;20.80;16.42;;;;;;;;;;5055299;28;39162;-77
2021/06/03 12:05:14;;;;;;;21.35;12.95;;;;;;;;;;5056491;28;41512;-77
2021/06/03 12:07:40;;;;;;;22.48;15.68;;;;;;;;;;5068422;27;48582;-79
2021/06/03 12:10:07;;;;;;;20.08;14.98;;;;;;;;;;5065604;27;38262;-78
2021/06/03 12:12:33;;;;;;;21.58;15.32;;;;;;;;;;5065880;28;40137;-79
2021/06/03 12:15:00;;;;;;;18.45;12.95;;;;;;;;;;5073088;28;39025;-78
2021/06/03 12:17:26;;;;;;;15.45;11.25;;;;;;;;;;5075717;27;36030;-78
2021/06/03 12:19:53;;;;;;;14.13;10.82;;;;;;;;;;5075089;28;39287;-79
2021/06/03 12:22:21;;;;;;;14.40;10.35;;;;;;;;;;5074794;27;39474;-79
2021/06/03 12:24:49;;;;;;;21.48;15.48;;;;;;;;;;5072525;28;38570;-80
2021/06/03 12:27:26;;;;;;;19.67;15.43;;;;;;;;;;5068207;27;37519;-80
2021/06/03 12:29:53;;;;;;;21.63;15.35;;;;;;;;;;5075144;27;38772;-78
2021/06/03 12:32:21;;;;;;;28.58;14.27;;;;;;;;;;5054831;27;38917;-78
2021/06/03 12:34:48;;;;;;;19.08;12.95;;;;;;;;;;5054408;28;40243;-78
2021/06/03 12:37:19;;;;;;;15.60;12.75;;;;;;;;;;5038754;27;38184;-79
2021/06/03 12:39:45;;;;;;;16.75;12.23;;;;;;;;;;5037414;28;40083;-77
2021/06/03 12:42:12;;;;;;;14.45;11.98;;;;;;;;;;5043372;28;39302;-77
2021/06/03 12:44:38;;;;;;;14.57;11.52;;;;;;;;;;5041694;28;39202;-79
2021/06/03 12:47:07;;;;;;;15.68;11.07;;;;;;;;;;5048865;28;37803;-77
2021/06/03 12:49:34;;;;;;;15.20;10.65;;;;;;;;;;5046212;28;40330;-79
2021/06/03 12:52:03;;;;;;;12.93;9.45;;;;;;;;;;5044758;28;38585;-80
2021/06/03 12:54:31;;;;;;;14.80;10.88;;;;;;;;;;5057375;28;47584;-78
2021/06/03 12:56:59;;;;;;;15.35;10.07;;;;;;;;;;5049461;28;37487;-79
2021/06/03 12:59:27;;;;;;;12.18;8.95;;;;;;;;;;5044930;28;38147;-78
2021/06/03 13:01:55;;;;;;;12.75;9.07;;;;;;;;;;5074820;28;37869;-78
2021/06/03 13:04:22;;;;;;;12.75;9.00;;;;;;;;;;5060519;28;39059;-78
2021/06/03 13:06:48;;;;;;;10.77;7.88;;;;;;;;;;5055078;27;37075;-78
2021/06/03 13:09:15;;;;;;;10.23;8.10;;;;;;;;;;5029882;28;39593;-80
2021/06/03 13:11:42;;;;;;;12.07;6.93;;;;;;;;;;5039408;28;38614;-80
2021/06/03 13:14:11;;;;;;;10.30;6.50;;;;;;;;;;5039484;28;39814;-80
2021/06/03 13:16:37;;;;;;;8.65;6.60;;;;;;;;;;5034987;28;37318;-80
2021/06/03 13:19:17;;;;;;;8.52;7.25;;;;;;;;;;5037537;27;38996;-80
2021/06/03 13:21:45;;;;;;;10.25;7.13;;;;;;;;;;5047859;27;39832;-80
2021/06/03 13:24:18;;;;;;;8.50;6.55;;;;;;;;;;5035948;28;39745;-80
2021/06/03 13:26:45;;;;;;;8.10;6.72;;;;;;;;;;5066859;28;38205;-79
2021/06/03 13:29:12;;;;;;;8.70;6.97;;;;;;;;;;5066973;28;39313;-78
2021/06/03 13:31:40;;;;;;;9.85;6.15;;;;;;;;;;5067934;28;39466;-80
2021/06/03 13:34:31;;;;;;;8.10;5.20;;;;;;;;;;5044674;28;38158;-80
2021/06/03 13:37:06;;;;;;;9.25;6.78;;;;;;;;;;5028757;28;37761;-80
2021/06/03 13:39:34;;;;;;;9.77;6.05;;;;;;;;;;5054981;27;49519;-79
2021/06/03 13:42:06;;;;;;;10.90;7.13;;;;;;;;;;5050851;27;38584;-77
2021/06/03 13:44:48;;;;;;;11.85;6.20;;;;;;;;;;5059859;28;47427;-80
2021/06/03 13:47:14;;;;;;;13.93;6.03;;;;;;;;;;5060321;27;36828;-79
2021/06/03 13:49:41;;;;;;;8.95;6.15;;;;;;;;;;5060314;28;39537;-79
2021/06/03 13:52:07;;;;;;;9.30;5.97;;;;;;;;;;5061828;28;38618;-80
2021/06/03 13:54:35;;;;;;;6.45;5.05;;;;;;;;;;5055866;28;39293;-77
2021/06/03 13:57:01;;;;;;;7.63;5.25;;;;;;;;;;5050075;28;37418;-77
2021/06/03 13:59:27;;;;;;;15.38;6.43;;;;;;;;;;5032558;28;47019;-78
2021/06/03 14:01:54;;;;;;;7.80;4.72;;;;;;;;;;5037408;28;38261;-77
2021/06/03 14:04:21;;;;;;;6.95;4.22;;;;;;;;;;5046345;28;38766;-80
2021/06/03 14:06:54;;;;;;;7.18;5.15;;;;;;;;;;5049968;28;37718;-77
2021/06/03 14:09:20;;;;;;;8.23;5.78;;;;;;;;;;5042726;27;39513;-77
2021/06/03 14:14:34;;;;;;;9.15;6.60;;;;;;;;;;5059946;28;49531;-79
2021/06/03 14:17:01;;;;;;;8.70;5.72;;;;;;;;;;5044573;28;37144;-80
2021/06/03 14:19:27;;;;;;;11.43;6.80;;;;;;;;;;5025952;28;46886;-81
2021/06/03 14:21:56;;;;;;;7.13;5.60;;;;;;;;;;5043525;28;38637;-80
2021/06/03 14:24:22;;;;;;;6.70;5.57;;;;;;;;;;5031785;28;38107;-80
2021/06/03 14:26:49;;;;;;;10.10;6.68;;;;;;;;;;5066040;28;38362;-79
2021/06/03 14:29:15;;;;;;;11.15;7.18;;;;;;;;;;5038355;28;39788;-79
2021/06/03 14:31:59;;;;;;;8.60;6.20;;;;;;;;;;5035857;28;38805;-79
2021/06/03 14:34:27;;;;;;;10.55;7.53;;;;;;;;;;5061994;28;39909;-79
2021/06/03 14:37:13;;;;;;;10.75;7.97;;;;;;;;;;5027753;28;38000;-80
2021/06/03 14:39:50;;;;;;;12.90;8.27;;;;;;;;;;5026715;28;48335;-78